NY Terminal Aviation Weather Discussion (AFD) - Prepared: 1246 AM EST FRI DEC 19 2014
A STRONG LOW PRESSURE SYSTEM WILL SPIN ACROSS THE CANADIAN MARITIMES
THROUGH 06Z SAT.

OVERNIGHT...SCT 030-040 CIGS. OCCASIONAL MVFR CIGS POSSIBLE. WINDS
GENERALLY 300-340 DEGREE MAGNETIC OCCASIONAL GUSTS TO 20 KT AT NYC
METRO.

FRIDAY...SCT-BKN 035-040 CIGS...WITH LOW PROB OF MVFR CIGS IN THE 
MORNING. WINDS GENERALLY 320-360 DEGREE MAGNETIC WITH SPEEDS OF 
10-15 KT GUSTS NEAR 20 KT.

FRIDAY EVENING...VFR WITH WINDS DECREASING.

5 Day General Aviation Outlook:

.OUTLOOK FOR 06Z SAT THROUGH WED...
.LATE FRI NIGHT-SAT...VFR. 
.SAT NIGHT...MVFR OR LOWER IN CIGS. LIGHT EAST WINDS.
.SUNDAY...MVFR OR LOWER IN CIGS. LIGHT EAST WINDS.
.MON...MVFR OR LOWER POSSIBLE IN ONSHORE SE FLOW.
.MON NIGHT-TUE...IFR LIKELY AT TIMES IN RAIN...CIGS AND VSBYS. SE WINDS
10-20 KT. 
.WED...HIGH IMPACT EVENT POSSIBLE...IFR LIKELY WITH HEAVY RAIN AND
STRONG GUSTY SE WINDS 25KT+ SHIFTING TO W LATE.



NY Metro Terminal Aviation Weather Summary: (Explanation of Color Coding)
NOTE: All Wind Directions are TRUE (add 13 degrees for magnetic directions). Tail and Crosswind Calculations do account for the magnetic deviation of runways.

Click on the Airport Below for Specific Information at that Terminal

TAF Overview JFK TAF LGA TAF EWR TAF TEB TAF HPN TAF ISP TAF

Jump to AirSpace Impacts Section Condensed "lite" version of SPA page
**************************************************************************************
KJFK Terminal Weather: (Wind Directions Are True, Except Where Noted, ADD 13 degrees for Magnetic)

5MIN KJFK 190840Z 31014KT 10SM FEW033 BKN055 BKN250 
     03/M05 A2999 -40 54 -1400 320/14 RMK AO2 $
5MIN KJFK 190835Z 31014KT 10SM FEW033 BKN055 BKN250 
     03/M05 A2999 -40 54 -1400 320/14 RMK AO2 $
********************************************
****        MAGNETIC DIRECTIONS         ****
********************************************
KJFK 12/19/2014 08:47:39 GMT 320 15 G21KT
KJFK 12/19/2014 08:45:39 GMT 320 16 G21KT
KJFK 12/19/2014 08:43:39 GMT 320 13 G21KT
KJFK 12/19/2014 08:41:39 GMT 320 12 G21KT
KJFK 12/19/2014 08:39:39 GMT 320 14 G21KT
KJFK 12/19/2014 08:37:39 GMT 320 15 G21KT
KJFK 12/19/2014 08:35:39 GMT 320 16 KT
KJFK 12/19/2014 08:33:39 GMT 320 14 G19KT
KJFK 12/19/2014 08:31:40 GMT 320 15 G19KT
KJFK 12/19/2014 08:29:40 GMT 320 13 G19KT
SAUS70 KJFK 190800 RRK
METAR KJFK 190751Z 31014G19KT 10SM FEW033 SCT055 BKN250 03/M04 A2998 RMK
     AO2 SLP153 T00331044 $
FTNA35 KJFK 190838 RRA
KJFK 190830Z 1909/2012 30013KT P6SM SCT030 BKN050
     FM191300 32014G20KT P6SM SCT035 BKN060
     FM192200 32010KT P6SM SCT035
     FM200700 35006KT P6SM SCT035
KJFK Forecaster Comments Not Available at This Time
jfk

JFK Hourly Forecast Temperature (C)

JFK Hourly TMPS
**************************************************************************************
KLGA Terminal Weather: (Wind Directions Are True, Except Where Noted, ADD 13 degrees for Magnetic)

5MIN KLGA 190840Z 30010KT 10SM BKN050 03/M03 A2997 -20 
     64 -1400 320/10 RMK AO2
5MIN KLGA 190835Z 32010KT 10SM BKN050 03/M04 A2997 -20 
     61 -1400 330/10 RMK AO2
********************************************
****        MAGNETIC DIRECTIONS         ****
********************************************
KLGA 12/19/2014 08:47:55 GMT 340 11 KT
KLGA 12/19/2014 08:45:55 GMT 330 13 KT
KLGA 12/19/2014 08:43:54 GMT 330 13 KT
KLGA 12/19/2014 08:41:54 GMT 330 14 KT
KLGA 12/19/2014 08:39:54 GMT 330 13 KT
KLGA 12/19/2014 08:37:54 GMT 330 13 KT
KLGA 12/19/2014 08:35:53 GMT 330 15 KT
KLGA 12/19/2014 08:33:54 GMT 330 14 KT
KLGA 12/19/2014 08:31:53 GMT 330 13 KT
KLGA 12/19/2014 08:29:53 GMT 340 13 KT
SAUS70 KLGA 190800
METAR KLGA 190751Z 32014G18KT 10SM SCT050 SCT200 SCT250 03/M03 A2997 RMK
     AO2 SLP147 T00281033
FTUS80 KLGA 190833 AAA
KLGA 190830Z 1909/2006 32013KT P6SM SCT030 BKN050
     FM191300 33014G20KT P6SM SCT035 BKN060
     FM192200 32010KT P6SM SCT035
KLGA Forecaster Comments Not Available at This Time
lga


**************************************************************************************

KEWR Terminal Weather: (Wind Directions Are True, Except Where Noted, ADD 13 degrees for Magnetic)

5MIN KEWR 190840Z 30007KT 10SM SCT035 BKN200 BKN250 
     03/M03 A2999 -40 64 -1400 310/07 RMK AO2
5MIN KEWR 190835Z 30006KT 10SM SCT035 BKN200 BKN250 
     03/M03 A2999 -40 64 -1500 320/06 RMK AO2
********************************************
****        MAGNETIC DIRECTIONS         ****
********************************************
KEWR 12/19/2014 08:47:09 GMT 330 14 G18KT
KEWR 12/19/2014 08:45:09 GMT 330 12 G18KT
KEWR 12/19/2014 08:43:09 GMT 320 10 G14KT
KEWR 12/19/2014 08:41:09 GMT 320 06 KT
KEWR 12/19/2014 08:39:09 GMT 320 05 KT
KEWR 12/19/2014 08:37:09 GMT 320 06 KT
KEWR 12/19/2014 08:35:09 GMT 330 05 KT
KEWR 12/19/2014 08:33:09 GMT 330 05 KT
KEWR 12/19/2014 08:31:09 GMT 330 07 KT
KEWR 12/19/2014 08:29:09 GMT 340 07 KT
SAUS70 KEWR 190800
METAR KEWR 190751Z 30007KT 10SM FEW050 SCT200 SCT250 02/M04 A2999 RMK
     AO2 SLP153 T00221039
FTUS80 KEWR 190833 AAA
KEWR 190830Z 1909/2012 30008KT P6SM SCT030 BKN050
     FM191300 32012G18KT P6SM SCT035 BKN060
     FM192100 32009KT P6SM SCT035
     FM200600 35005KT P6SM SCT035
KEWR Forecaster Comments Not Available at This Time
ewr
Afternoon EWR Haze Potential Forecast: KEWR Haze Forecast Not Available at This Time
IS NOT AVAILABLE AT THIS TIME


******************************************************************************

KTEB Terminal Weather:
SAUS80 KTEB 190800
METAR KTEB 190751Z 32007KT 10SM BKN050 02/M04 A2997 RMK AO2 SLP150
     T00221044
FTUS31 KTEB 190833 AAA
KTEB 190830Z 1909/2006 30008KT P6SM SCT030 BKN050
     FM191300 33011G17KT P6SM SCT035 BKN060
     FM192100 32007KT P6SM SCT035
     FM200400 VRB03KT P6SM SCT035
KTEB Forecaster Comments Not Available at This Time
teb

 


**************************************************************************************

KHPN Terminal Weather:
SAUS70 KHPN 190800 RRA
METAR KHPN 190756Z 31012G19KT 10SM BKN050 02/M04 A2993 RMK AO2 SLP142
     T00171039
FTUS80 KHPN 190833 AAA
KHPN 190830Z 1909/2006 30010KT P6SM SCT030 BKN050
     FM191300 33011G17KT P6SM SCT035 BKN060
     FM192100 32008KT P6SM SCT035
     FM200500 35005KT P6SM SCT035 AMD NOT SKED
KHPN Forecaster Comments Not Available at This Time
HPN


******************************************************************************

KISP Terminal Weather:
SAUS70 KISP 190800 RRA
METAR KISP 190756Z AUTO 28005KT 10SM OVC055 01/M03 A2994 RMK AO2 SLP139
     T00111028
FTUS80 KISP 190833 AAA
KISP 190830Z 1909/2006 29008KT P6SM SCT030 BKN050
     FM191300 33014G20KT P6SM SCT035 BKN060
     FM192200 32008KT P6SM SCT035
     FM200500 36005KT P6SM SCT035
KISP Forecaster Comments Not Available at This Time
ISP

 


ZNY SWAP Season Information

(ZNY SWAP STATEMENT) (Click for PDF File) (ZNY BRIEFING) (Click for PDF File)

*******************************************************
***        NY AIR ROUTE TRAFFIC CONTROL CENTER      ***
***                DAILY SWAP STATEMENT             ***
*******************************************************
NY AIR ROUTE TRAFFIC CONTROL CENTER
DAILY SWAP STATEMENT
SUNDAY OCTOBER 26, 2014
ROUTINE SWAP STATEMENTS ARE ISSUED 
BETWEEN APRIL 1 AND SEPTEMBER 30.
SWAP STATEMENTS WILL BE ISSUED IF TS ARE 
EXPECTED TO IMPACT OPERATIONS.
$$



N90 AirSpace Impacts

N90 Compression Forecast

N90 Compression Forecast

N90 Icing Forecast

N90 Icing Forecast

N90 Thunderstorm Forecast (Issued if Expected)

N90 Day 2 SWAP Outlook

 

Surface Weather Map

Surface Weather map

National Collaborative Convective Forecast Product (CCFP) Forecasts (Mar-Oct)


Vertical Wind Profile
Untitled Document